createdAt,value
2022-12-05T00:01:36.447Z,2.60
2022-12-05T00:04:07.219Z,2.60
2022-12-05T00:06:34.291Z,2.60
2022-12-05T00:09:01.439Z,2.60
2022-12-05T00:11:31.102Z,2.60
2022-12-05T00:13:57.949Z,2.60
2022-12-05T00:16:25.221Z,2.60
2022-12-05T00:18:52.064Z,2.60
2022-12-05T00:21:23.266Z,2.60
2022-12-05T00:23:50.755Z,2.60
2022-12-05T00:26:16.880Z,2.60
2022-12-05T00:28:43.501Z,2.60
2022-12-05T00:31:12.157Z,2.60
2022-12-05T00:33:38.307Z,2.60
2022-12-05T00:36:07.166Z,2.60
2022-12-05T00:38:33.852Z,2.60
2022-12-05T00:41:07.526Z,2.60
2022-12-05T00:43:34.192Z,2.60
2022-12-05T00:46:09.065Z,2.60
2022-12-05T00:48:36.055Z,2.60
2022-12-05T00:51:03.962Z,2.60
2022-12-05T00:53:30.609Z,2.60
2022-12-05T00:56:01.105Z,2.60
2022-12-05T00:58:28.377Z,2.60
2022-12-05T01:00:54.860Z,4.80
2022-12-05T01:03:21.140Z,2.60
2022-12-05T01:05:47.375Z,2.60
2022-12-05T01:08:13.605Z,2.60
2022-12-05T01:10:40.002Z,2.60
2022-12-05T01:13:06.641Z,2.60
2022-12-05T01:15:37.077Z,2.70
2022-12-05T01:18:03.320Z,2.60
2022-12-05T01:20:30.088Z,2.60
2022-12-05T01:22:57.432Z,2.70
2022-12-05T01:25:24.532Z,2.70
2022-12-05T01:27:50.760Z,2.70
2022-12-05T01:30:16.935Z,2.60
2022-12-05T01:32:43.477Z,2.60
2022-12-05T01:35:10.607Z,2.70
2022-12-05T01:37:37.372Z,2.70
2022-12-05T01:40:05.072Z,2.60
2022-12-05T01:42:31.271Z,2.60
2022-12-05T01:44:59.983Z,2.70
2022-12-05T01:47:26.201Z,2.60
2022-12-05T01:49:54.166Z,3.40
2022-12-05T01:52:23.625Z,2.70
2022-12-05T01:54:51.240Z,2.60
2022-12-05T01:57:17.340Z,2.70
2022-12-05T01:59:53.757Z,2.60
2022-12-05T02:02:20.616Z,2.60
2022-12-05T02:05:03.491Z,2.60
2022-12-05T02:07:30.569Z,2.60
2022-12-05T02:09:58.048Z,2.60
2022-12-05T02:12:24.366Z,2.60
2022-12-05T02:19:14.667Z,2.60
2022-12-05T02:26:02.250Z,2.60
2022-12-05T02:30:10.743Z,2.60
2022-12-05T02:33:04.100Z,2.50
2022-12-05T02:37:24.794Z,2.60
2022-12-05T02:40:01.162Z,2.60
2022-12-05T02:42:52.806Z,2.50
2022-12-05T02:45:20.030Z,2.50
2022-12-05T02:47:49.237Z,2.60
2022-12-05T02:50:18.858Z,2.60
2022-12-05T02:52:46.308Z,2.50
2022-12-05T02:55:14.060Z,2.60
2022-12-05T02:57:40.229Z,2.60
2022-12-05T03:00:08.006Z,2.60
2022-12-05T03:02:34.355Z,2.60
2022-12-05T03:06:26.273Z,2.60
2022-12-05T03:08:58.904Z,2.50
2022-12-05T03:11:26.515Z,2.50
2022-12-05T03:13:55.558Z,2.60
2022-12-05T03:16:44.534Z,2.60
2022-12-05T03:19:13.796Z,2.60
2022-12-05T03:22:02.445Z,2.60
2022-12-05T03:24:29.707Z,2.60
2022-12-05T03:27:30.762Z,2.60
2022-12-05T03:30:07.021Z,2.50
2022-12-05T03:33:22.948Z,2.50
2022-12-05T03:38:26.026Z,2.50
2022-12-05T03:42:48.354Z,2.50
2022-12-05T03:45:19.486Z,2.50
2022-12-05T03:48:11.046Z,2.50
2022-12-05T03:50:37.929Z,2.40
2022-12-05T03:53:19.511Z,2.40
2022-12-05T03:55:48.624Z,2.50
2022-12-05T03:58:22.376Z,2.50
2022-12-05T04:00:49.975Z,2.40
2022-12-05T04:03:40.119Z,2.40
2022-12-05T04:06:33.239Z,2.40
2022-12-05T04:09:16.658Z,2.40
2022-12-05T04:11:48.128Z,2.40
2022-12-05T04:14:34.963Z,2.30
2022-12-05T04:17:10.777Z,2.30
2022-12-05T04:21:34.129Z,2.30
2022-12-05T04:24:18.680Z,2.30
2022-12-05T04:26:47.072Z,2.40
2022-12-05T04:29:37.562Z,2.30
2022-12-05T04:32:06.998Z,2.30
2022-12-05T04:34:33.132Z,2.30
2022-12-05T04:37:04.215Z,1.40
2022-12-05T04:39:40.850Z,2.20
2022-12-05T04:42:13.596Z,2.30
2022-12-05T04:44:43.950Z,2.30
2022-12-05T04:47:10.269Z,2.30
2022-12-05T04:49:36.398Z,2.20
2022-12-05T04:52:06.930Z,2.30
2022-12-05T04:54:47.781Z,2.30
2022-12-05T04:58:36.590Z,2.20
2022-12-05T05:02:59.598Z,2.20
2022-12-05T05:05:25.969Z,2.30
2022-12-05T05:07:53.556Z,2.20
2022-12-05T05:10:25.596Z,2.20
2022-12-05T05:12:51.815Z,2.20
2022-12-05T05:15:18.752Z,2.20
2022-12-05T05:17:45.385Z,2.20
2022-12-05T05:20:24.416Z,2.20
2022-12-05T05:22:51.762Z,2.20
2022-12-05T05:25:19.327Z,2.20
2022-12-05T05:27:54.856Z,2.20
2022-12-05T05:30:22.837Z,2.20
2022-12-05T05:32:48.941Z,2.20
2022-12-05T05:35:15.507Z,2.30
2022-12-05T05:37:41.689Z,2.30
2022-12-05T05:40:11.055Z,2.30
2022-12-05T05:42:42.837Z,2.30
2022-12-05T05:45:10.969Z,2.30
2022-12-05T05:47:37.166Z,2.30
2022-12-05T05:50:05.227Z,2.30
2022-12-05T05:52:36.166Z,2.30
2022-12-05T05:55:03.119Z,2.30
2022-12-05T05:57:30.590Z,2.30
2022-12-05T05:59:57.026Z,2.30
2022-12-05T06:02:23.901Z,2.30
2022-12-05T06:04:50.349Z,2.30
2022-12-05T06:07:16.522Z,2.30
2022-12-05T06:09:42.723Z,2.30
2022-12-05T06:12:09.384Z,2.30
2022-12-05T06:14:35.562Z,2.30
2022-12-05T06:17:02.988Z,2.40
2022-12-05T06:19:29.709Z,2.30
2022-12-05T06:21:55.848Z,2.30
2022-12-05T06:24:21.979Z,2.30
2022-12-05T06:26:48.986Z,2.30
2022-12-05T06:29:16.576Z,2.30
2022-12-05T06:31:43.266Z,2.30
2022-12-05T06:34:09.487Z,2.40
2022-12-05T06:36:35.962Z,2.40
2022-12-05T06:39:02.162Z,2.30
2022-12-05T06:41:28.285Z,2.40
2022-12-05T06:44:00.181Z,2.40
2022-12-05T06:46:29.020Z,2.40
2022-12-05T06:48:56.567Z,2.40
2022-12-05T06:51:24.052Z,2.40
2022-12-05T06:53:50.180Z,2.40
2022-12-05T06:56:18.121Z,2.40
2022-12-05T06:58:46.992Z,2.50
2022-12-05T07:01:33.655Z,2.50
2022-12-05T07:04:00.321Z,2.40
2022-12-05T07:06:26.614Z,2.50
2022-12-05T07:08:52.797Z,2.50
2022-12-05T07:11:18.989Z,2.50
2022-12-05T07:13:45.205Z,2.50
2022-12-05T07:16:12.232Z,2.50
2022-12-05T07:18:39.315Z,2.50
2022-12-05T07:21:12.047Z,2.50
2022-12-05T07:23:40.858Z,2.50
2022-12-05T07:26:09.353Z,2.50
2022-12-05T07:28:36.071Z,2.60
2022-12-05T07:31:06.784Z,2.50
2022-12-05T07:33:32.971Z,2.50
2022-12-05T07:36:05.325Z,2.60
2022-12-05T07:38:32.163Z,2.60
2022-12-05T07:40:58.902Z,2.60
2022-12-05T07:43:25.364Z,2.60
2022-12-05T07:45:51.591Z,2.60
2022-12-05T07:48:18.921Z,2.60
2022-12-05T07:50:45.875Z,2.60
2022-12-05T07:53:12.242Z,2.60
2022-12-05T07:55:39.568Z,2.70
2022-12-05T07:58:06.359Z,2.60
2022-12-05T08:00:32.489Z,2.70
2022-12-05T08:02:58.921Z,2.70
2022-12-05T08:05:25.149Z,2.70
2022-12-05T08:07:51.526Z,2.70
2022-12-05T08:10:17.962Z,2.70
2022-12-05T08:12:44.573Z,2.70
2022-12-05T08:15:11.200Z,2.80
2022-12-05T08:17:37.432Z,2.80
2022-12-05T08:20:05.201Z,2.80
2022-12-05T08:22:32.144Z,2.90
2022-12-05T08:25:00.659Z,2.90
2022-12-05T08:27:27.056Z,2.90
2022-12-05T08:29:54.724Z,3.00
2022-12-05T08:32:21.556Z,3.00
2022-12-05T08:34:48.719Z,3.10
2022-12-05T08:37:14.905Z,3.00
2022-12-05T08:39:41.011Z,3.00
2022-12-05T08:42:07.497Z,3.10
2022-12-05T08:44:34.702Z,3.10
2022-12-05T08:47:01.377Z,3.10
2022-12-05T08:49:28.007Z,3.00
2022-12-05T08:51:54.777Z,3.10
2022-12-05T08:54:21.292Z,3.10
2022-12-05T08:56:50.655Z,3.10
2022-12-05T08:59:17.526Z,3.10
2022-12-05T09:01:44.227Z,3.10
2022-12-05T09:04:12.093Z,3.70
2022-12-05T09:06:39.258Z,3.10
2022-12-05T09:09:07.391Z,3.10
2022-12-05T09:11:35.873Z,3.10
2022-12-05T09:14:02.240Z,3.10
2022-12-05T09:16:36.446Z,3.10
2022-12-05T09:19:04.090Z,3.10
2022-12-05T09:21:31.206Z,3.20
2022-12-05T09:24:00.468Z,3.20
2022-12-05T09:26:27.279Z,3.20
2022-12-05T09:28:53.597Z,3.20
2022-12-05T09:31:22.763Z,3.20
2022-12-05T09:33:49.810Z,3.20
2022-12-05T09:36:18.905Z,3.20
2022-12-05T09:38:45.238Z,3.20
2022-12-05T09:43:06.608Z,3.30
2022-12-05T09:45:48.316Z,3.30
2022-12-05T09:48:16.017Z,3.40
2022-12-05T09:50:56.996Z,3.40
2022-12-05T09:53:44.401Z,3.40
2022-12-05T09:56:26.292Z,3.50
2022-12-05T09:59:02.158Z,3.50
2022-12-05T10:01:44.824Z,3.50
2022-12-05T10:04:46.732Z,3.60
2022-12-05T10:07:24.677Z,3.60
2022-12-05T10:13:22.728Z,3.70
2022-12-05T10:15:59.724Z,3.70
2022-12-05T10:18:40.606Z,3.70
2022-12-05T10:23:58.824Z,3.80
2022-12-05T10:26:32.231Z,3.70
2022-12-05T10:29:23.652Z,3.80
2022-12-05T10:31:49.872Z,2.90
2022-12-05T10:35:45.290Z,3.70
2022-12-05T10:38:32.528Z,3.80
2022-12-05T10:41:00.757Z,3.80
2022-12-05T10:43:29.004Z,3.80
2022-12-05T10:45:55.625Z,3.80
2022-12-05T10:48:22.133Z,3.80
2022-12-05T10:50:52.963Z,3.80
2022-12-05T10:53:25.024Z,3.80
2022-12-05T10:56:28.134Z,3.80
2022-12-05T10:58:56.498Z,3.90
2022-12-05T11:01:23.764Z,3.90
2022-12-05T11:03:56.438Z,3.90
2022-12-05T11:06:30.156Z,4.00
2022-12-05T11:09:06.132Z,4.00
2022-12-05T11:11:33.163Z,4.10
2022-12-05T11:14:08.683Z,4.10
2022-12-05T11:16:37.771Z,4.10
2022-12-05T11:22:36.252Z,4.10
2022-12-05T11:25:22.880Z,4.20
2022-12-05T11:27:49.207Z,4.20
2022-12-05T11:30:18.558Z,4.20
2022-12-05T11:32:44.964Z,4.20
2022-12-05T11:35:24.098Z,4.20
2022-12-05T11:38:09.655Z,4.20
2022-12-05T11:45:51.389Z,4.20
2022-12-05T11:51:01.445Z,4.40
2022-12-05T11:53:59.547Z,4.40
2022-12-05T11:57:23.257Z,4.50
2022-12-05T12:00:06.865Z,4.50
2022-12-05T12:06:32.755Z,4.60
2022-12-05T12:09:40.080Z,4.70
2022-12-05T12:14:56.786Z,4.80
2022-12-05T12:19:07.532Z,4.80
2022-12-05T12:22:09.437Z,4.70
2022-12-05T12:31:48.948Z,4.60
2022-12-05T12:35:55.919Z,4.60
2022-12-05T12:40:11.713Z,4.60
2022-12-05T12:44:12.131Z,4.60
2022-12-05T12:46:57.417Z,4.60
2022-12-05T12:50:56.098Z,4.60
2022-12-05T12:57:13.876Z,4.60
2022-12-05T13:00:09.999Z,4.50
2022-12-05T13:02:52.788Z,4.50
2022-12-05T13:06:14.053Z,4.50
2022-12-05T13:09:01.644Z,4.50
2022-12-05T13:11:33.313Z,4.60
2022-12-05T13:14:00.857Z,4.50
2022-12-05T13:16:30.775Z,4.60
2022-12-05T13:18:57.620Z,4.60
2022-12-05T13:21:24.205Z,4.60
2022-12-05T13:23:55.318Z,4.60
2022-12-05T13:26:23.347Z,4.60
2022-12-05T13:28:57.821Z,4.50
2022-12-05T13:31:41.957Z,4.50
2022-12-05T13:34:45.149Z,4.50
2022-12-05T13:37:37.559Z,4.50
2022-12-05T13:40:24.966Z,4.50
2022-12-05T13:43:02.802Z,4.40
2022-12-05T13:45:29.328Z,4.40
2022-12-05T13:48:12.460Z,4.40
2022-12-05T13:51:40.231Z,4.40
2022-12-05T13:54:24.357Z,4.40
2022-12-05T13:56:57.876Z,4.40
2022-12-05T14:00:00.819Z,4.40
2022-12-05T14:02:51.164Z,4.40
2022-12-05T14:05:42.610Z,4.40
2022-12-05T14:12:01.459Z,4.40
2022-12-05T14:15:01.565Z,4.30
2022-12-05T14:17:43.894Z,4.30
2022-12-05T14:23:35.381Z,4.30
2022-12-05T14:29:05.256Z,4.30
2022-12-05T14:33:12.632Z,4.30
2022-12-05T14:35:46.180Z,4.30
2022-12-05T14:38:27.508Z,4.20
2022-12-05T14:40:54.464Z,4.20
2022-12-05T14:43:34.248Z,4.20
2022-12-05T14:46:08.154Z,4.20
2022-12-05T14:48:47.127Z,4.20
2022-12-05T14:55:43.396Z,4.20
2022-12-05T14:58:31.199Z,4.20
2022-12-05T15:01:02.993Z,4.20
2022-12-05T15:03:34.653Z,4.20
2022-12-05T15:06:03.975Z,4.20
2022-12-05T15:08:40.088Z,4.20
2022-12-05T15:11:06.217Z,4.20
2022-12-05T15:13:32.409Z,4.20
2022-12-05T15:16:13.679Z,4.30
2022-12-05T15:18:47.151Z,4.20
2022-12-05T15:21:42.378Z,4.20
2022-12-05T15:24:15.622Z,4.20
2022-12-05T15:27:03.474Z,4.20
2022-12-05T15:29:32.246Z,4.20
2022-12-05T15:32:20.970Z,4.20
2022-12-05T15:35:04.781Z,4.30
2022-12-05T15:38:08.662Z,4.30
2022-12-05T15:40:37.885Z,4.30
2022-12-05T15:43:29.680Z,4.30
2022-12-05T15:46:25.288Z,4.30
2022-12-05T15:48:56.480Z,4.30
2022-12-05T15:51:36.340Z,4.30
2022-12-05T15:54:13.993Z,4.30
2022-12-05T15:56:52.913Z,4.30
2022-12-05T15:59:36.645Z,4.30
2022-12-05T16:02:19.370Z,4.30
2022-12-05T16:04:50.003Z,4.30
2022-12-05T16:07:16.624Z,4.30
2022-12-05T16:09:45.071Z,4.30
2022-12-05T16:12:32.934Z,4.30
2022-12-05T16:15:05.753Z,4.30
2022-12-05T16:17:41.883Z,4.30
2022-12-05T16:20:30.249Z,4.30
2022-12-05T16:23:00.588Z,4.30
2022-12-05T16:25:35.650Z,4.30
2022-12-05T16:28:36.117Z,4.30
2022-12-05T16:31:04.443Z,4.30
2022-12-05T16:33:31.694Z,4.40
2022-12-05T16:36:11.883Z,4.30
2022-12-05T16:38:40.305Z,4.30
2022-12-05T16:41:09.951Z,4.40
2022-12-05T16:43:46.847Z,4.30
2022-12-05T16:46:43.574Z,4.30
2022-12-05T16:49:33.361Z,4.30
2022-12-05T16:52:14.164Z,4.30
2022-12-05T16:54:42.989Z,4.30
2022-12-05T16:57:11.719Z,4.30
2022-12-05T16:59:39.465Z,4.30
2022-12-05T17:02:10.749Z,4.40
2022-12-05T17:04:38.116Z,4.30
2022-12-05T17:07:05.128Z,4.30
2022-12-05T17:09:31.989Z,4.30
2022-12-05T17:12:06.566Z,4.30
2022-12-05T17:14:33.352Z,4.30
2022-12-05T17:17:03.479Z,4.40
2022-12-05T17:19:30.617Z,4.40
2022-12-05T17:21:57.673Z,4.40
2022-12-05T17:24:30.422Z,4.40
2022-12-05T17:26:56.974Z,4.40
2022-12-05T17:29:23.624Z,4.40
2022-12-05T17:31:50.934Z,4.50
2022-12-05T17:34:18.128Z,4.50
2022-12-05T17:36:46.398Z,4.50
2022-12-05T17:39:13.328Z,4.50
2022-12-05T17:41:39.840Z,4.50
2022-12-05T17:44:07.027Z,4.50
2022-12-05T17:46:33.614Z,4.50
2022-12-05T17:49:01.672Z,4.50
2022-12-05T17:51:28.374Z,4.50
2022-12-05T17:53:55.907Z,4.50
2022-12-05T17:56:22.542Z,4.50
2022-12-05T17:58:50.338Z,4.50
2022-12-05T18:01:19.065Z,4.50
2022-12-05T18:03:46.604Z,4.50
2022-12-05T18:06:13.289Z,4.50
2022-12-05T18:08:41.462Z,4.50
2022-12-05T18:11:08.101Z,4.40
2022-12-05T18:13:35.354Z,4.40
2022-12-05T18:16:02.845Z,4.50
2022-12-05T18:18:30.184Z,4.40
2022-12-05T18:21:08.272Z,4.50
2022-12-05T18:23:35.925Z,4.40
2022-12-05T18:26:03.795Z,4.40
2022-12-05T18:28:30.455Z,4.50
2022-12-05T18:31:05.186Z,4.40
2022-12-05T18:33:31.804Z,4.40
2022-12-05T18:36:04.163Z,4.40
2022-12-05T18:38:32.511Z,4.50
2022-12-05T18:41:01.004Z,4.40
2022-12-05T18:43:27.812Z,4.40
2022-12-05T18:45:57.834Z,4.40
2022-12-05T18:48:38.820Z,4.50
2022-12-05T18:51:29.677Z,4.40
2022-12-05T18:53:56.831Z,4.40
2022-12-05T18:56:26.322Z,4.50
2022-12-05T18:59:02.167Z,4.50
2022-12-05T19:01:30.130Z,4.40
2022-12-05T19:03:57.892Z,4.40
2022-12-05T19:06:26.774Z,4.40
2022-12-05T19:08:56.159Z,4.40
2022-12-05T19:11:24.043Z,4.40
2022-12-05T19:13:59.146Z,4.40
2022-12-05T19:16:26.894Z,4.40
2022-12-05T19:18:55.163Z,4.40
2022-12-05T19:21:22.980Z,4.40
2022-12-05T19:23:49.737Z,4.40
2022-12-05T19:26:16.763Z,4.40
2022-12-05T19:28:44.109Z,4.40
2022-12-05T19:31:15.115Z,4.30
2022-12-05T19:33:43.637Z,4.30
2022-12-05T19:36:15.448Z,4.30
2022-12-05T19:38:43.022Z,4.30
2022-12-05T19:41:13.995Z,4.30
2022-12-05T19:43:41.472Z,4.30
2022-12-05T19:46:13.118Z,4.30
2022-12-05T19:48:40.071Z,6.80
2022-12-05T19:51:10.529Z,4.30
2022-12-05T19:53:39.623Z,4.30
2022-12-05T19:56:17.799Z,4.30
2022-12-05T19:58:44.777Z,4.30
2022-12-05T20:01:34.375Z,4.30
2022-12-05T20:04:07.774Z,4.30
2022-12-05T20:06:38.924Z,4.30
2022-12-05T20:09:06.406Z,4.20
2022-12-05T20:11:33.924Z,4.20
2022-12-05T20:14:00.969Z,4.20
2022-12-05T20:16:29.010Z,4.20
2022-12-05T20:18:58.281Z,4.20
2022-12-05T20:21:26.968Z,4.20
2022-12-05T20:23:54.423Z,4.20
2022-12-05T20:26:24.246Z,4.20
2022-12-05T20:28:52.213Z,4.20
2022-12-05T20:31:23.201Z,4.10
2022-12-05T20:33:50.617Z,4.20
2022-12-05T20:36:24.286Z,4.20
2022-12-05T20:39:02.410Z,4.10
2022-12-05T20:41:29.573Z,4.10
2022-12-05T20:44:59.532Z,4.20
2022-12-05T20:47:26.735Z,4.20
2022-12-05T20:49:53.465Z,4.20
2022-12-05T20:52:23.384Z,4.20
2022-12-05T20:54:52.397Z,4.20
2022-12-05T20:57:19.114Z,4.20
2022-12-05T20:59:48.082Z,4.20
2022-12-05T21:02:15.943Z,4.20
2022-12-05T21:04:45.338Z,4.20
2022-12-05T21:07:14.178Z,4.20
2022-12-05T21:09:43.574Z,4.30
2022-12-05T21:12:14.086Z,4.30
2022-12-05T21:14:42.001Z,4.30
2022-12-05T21:17:10.241Z,4.30
2022-12-05T21:19:36.566Z,4.30
2022-12-05T21:22:03.204Z,4.30
2022-12-05T21:24:31.766Z,4.30
2022-12-05T21:26:58.419Z,4.40
2022-12-05T21:29:26.242Z,4.40
2022-12-05T21:31:53.959Z,4.40
2022-12-05T21:34:21.670Z,4.40
2022-12-05T21:36:49.000Z,4.40
2022-12-05T21:39:15.897Z,4.40
2022-12-05T21:41:43.464Z,4.40
2022-12-05T21:44:11.085Z,4.40
2022-12-05T21:46:38.778Z,4.40
2022-12-05T21:49:05.843Z,4.40
2022-12-05T21:51:32.256Z,4.40
2022-12-05T21:53:58.900Z,4.40
2022-12-05T21:56:25.929Z,4.40
2022-12-05T21:58:53.141Z,4.40
2022-12-05T22:01:25.261Z,4.30
2022-12-05T22:03:53.204Z,4.30
2022-12-05T22:06:19.457Z,4.40
2022-12-05T22:08:46.419Z,4.40
2022-12-05T22:11:14.927Z,4.40
2022-12-05T22:13:41.357Z,4.40
2022-12-05T22:16:08.368Z,4.40
2022-12-05T22:18:35.124Z,4.40
2022-12-05T22:21:03.787Z,4.40
2022-12-05T22:23:30.830Z,4.40
2022-12-05T22:26:17.333Z,4.40
2022-12-05T22:28:43.527Z,4.40
2022-12-05T22:31:13.035Z,4.40
2022-12-05T22:33:39.696Z,4.40
2022-12-05T22:36:07.916Z,4.40
2022-12-05T22:38:38.601Z,4.40
2022-12-05T22:41:09.948Z,4.40
2022-12-05T22:43:37.326Z,4.40
2022-12-05T22:46:08.448Z,4.40
2022-12-05T22:48:35.353Z,4.40
2022-12-05T22:51:01.740Z,4.40
2022-12-05T22:53:28.563Z,4.30
2022-12-05T22:56:01.758Z,4.40
2022-12-05T22:58:28.401Z,4.40
2022-12-05T23:00:54.604Z,4.30
2022-12-05T23:03:21.033Z,4.40
2022-12-05T23:05:47.803Z,4.40
2022-12-05T23:08:14.276Z,4.40
2022-12-05T23:10:40.657Z,4.40
2022-12-05T23:13:07.203Z,4.40
2022-12-05T23:15:34.031Z,4.40
2022-12-05T23:18:01.001Z,4.30
2022-12-05T23:20:27.873Z,4.30
2022-12-05T23:22:54.066Z,4.30
2022-12-05T23:25:21.569Z,4.30
2022-12-05T23:27:47.863Z,4.30
2022-12-05T23:30:15.109Z,4.20
2022-12-05T23:32:41.285Z,4.20
2022-12-05T23:35:10.341Z,4.20
2022-12-05T23:37:36.877Z,4.20
2022-12-05T23:40:04.672Z,4.20
2022-12-05T23:42:31.158Z,4.20
2022-12-05T23:44:57.582Z,4.20
2022-12-05T23:47:23.893Z,4.20
2022-12-05T23:49:50.131Z,4.20
2022-12-05T23:52:16.423Z,4.20
2022-12-05T23:54:43.191Z,4.30
2022-12-05T23:57:13.288Z,4.30
2022-12-05T23:59:42.357Z,3.20
